createdAt,value
2023-05-14T00:00:04.179Z,4.27
2023-05-14T00:02:30.852Z,4.37
2023-05-14T00:04:57.572Z,4.37
2023-05-14T00:07:30.444Z,4.33
2023-05-14T00:09:57.953Z,4.20
2023-05-14T00:12:25.072Z,4.50
2023-05-14T00:14:52.255Z,4.67
2023-05-14T00:17:19.050Z,4.30
2023-05-14T00:19:46.108Z,4.20
2023-05-14T00:22:12.753Z,4.80
2023-05-14T00:24:39.446Z,5.00
2023-05-14T00:27:06.646Z,4.53
2023-05-14T00:29:33.298Z,4.80
2023-05-14T00:31:59.918Z,4.50
2023-05-14T00:34:26.968Z,4.90
2023-05-14T00:36:53.654Z,4.27
2023-05-14T00:39:20.317Z,5.10
2023-05-14T00:41:46.954Z,4.67
2023-05-14T00:44:16.701Z,5.03
2023-05-14T00:46:43.774Z,4.93
2023-05-14T00:49:10.818Z,5.10
2023-05-14T00:51:38.011Z,4.47
2023-05-14T00:54:04.955Z,4.20
2023-05-14T00:56:31.826Z,4.70
2023-05-14T00:58:58.787Z,4.37
2023-05-14T01:01:28.487Z,4.60
2023-05-14T01:03:57.870Z,4.70
2023-05-14T01:06:56.651Z,4.73
2023-05-14T01:09:27.204Z,4.40
2023-05-14T01:12:26.107Z,4.30
2023-05-14T01:14:57.306Z,4.53
2023-05-14T01:17:28.576Z,4.60
2023-05-14T01:19:55.625Z,4.70
2023-05-14T01:22:22.251Z,4.50
2023-05-14T01:24:48.873Z,4.50
2023-05-14T01:27:18.588Z,4.80
2023-05-14T01:30:25.847Z,4.67
2023-05-14T01:32:56.577Z,4.90
2023-05-14T01:35:29.182Z,4.37
2023-05-14T01:37:57.800Z,4.70
2023-05-14T01:40:25.181Z,4.20
2023-05-14T01:42:53.433Z,4.33
2023-05-14T01:45:24.138Z,5.20
2023-05-14T01:47:51.327Z,4.97
2023-05-14T01:50:18.303Z,4.77
2023-05-14T01:52:45.041Z,4.53
2023-05-14T01:55:11.833Z,4.50
2023-05-14T01:57:38.522Z,4.50
2023-05-14T02:00:05.964Z,4.40
2023-05-14T02:02:32.680Z,4.40
2023-05-14T02:04:59.369Z,4.80
2023-05-14T02:07:26.436Z,4.67
2023-05-14T02:09:53.091Z,4.77
2023-05-14T02:12:19.722Z,4.37
2023-05-14T02:14:46.626Z,4.70
2023-05-14T02:17:15.894Z,4.47
2023-05-14T02:19:42.548Z,4.70
2023-05-14T02:22:09.203Z,4.23
2023-05-14T02:24:35.838Z,4.40
2023-05-14T02:27:02.557Z,4.97
2023-05-14T02:29:29.170Z,4.17
2023-05-14T02:31:56.889Z,4.10
2023-05-14T02:34:23.783Z,4.00
2023-05-14T02:36:50.434Z,4.60
2023-05-14T02:39:17.105Z,4.00
2023-05-14T02:41:43.819Z,4.30
2023-05-14T02:44:12.542Z,4.07
2023-05-14T02:46:39.209Z,4.27
2023-05-14T02:49:05.878Z,4.47
2023-05-14T02:51:32.533Z,5.00
2023-05-14T02:53:59.339Z,4.30
2023-05-14T02:56:26.491Z,4.40
2023-05-14T02:58:53.141Z,4.67
2023-05-14T03:01:20.465Z,4.40
2023-05-14T03:03:47.703Z,4.17
2023-05-14T03:06:14.755Z,4.17
2023-05-14T03:08:41.622Z,5.07
2023-05-14T03:11:08.258Z,6.07
2023-05-14T03:13:34.889Z,4.40
2023-05-14T03:16:01.536Z,4.67
2023-05-14T03:18:30.510Z,4.10
2023-05-14T03:20:57.266Z,4.63
2023-05-14T03:23:23.911Z,3.93
2023-05-14T03:25:51.000Z,4.03
2023-05-14T03:28:19.032Z,4.70
2023-05-14T03:30:45.691Z,5.00
2023-05-14T03:33:12.523Z,4.40
2023-05-14T03:35:39.190Z,4.50
2023-05-14T03:38:05.995Z,4.37
2023-05-14T03:40:32.663Z,5.30
2023-05-14T03:43:02.025Z,4.43
2023-05-14T03:45:30.409Z,4.47
2023-05-14T03:47:57.124Z,4.37
2023-05-14T03:50:25.654Z,4.60
2023-05-14T03:52:52.656Z,4.10
2023-05-14T03:55:22.718Z,4.40
2023-05-14T03:57:49.483Z,4.47
2023-05-14T04:00:16.326Z,4.33
2023-05-14T04:02:43.196Z,4.27
2023-05-14T04:05:09.865Z,4.57
2023-05-14T04:07:36.513Z,4.30
2023-05-14T04:10:04.709Z,4.70
2023-05-14T04:12:31.613Z,4.37
2023-05-14T04:14:58.502Z,4.53
2023-05-14T04:17:25.687Z,4.63
2023-05-14T04:19:52.429Z,4.43
2023-05-14T04:22:21.373Z,4.10
2023-05-14T04:24:47.976Z,3.87
2023-05-14T04:27:20.918Z,3.93
2023-05-14T04:29:48.171Z,4.23
2023-05-14T04:32:14.855Z,4.40
2023-05-14T04:34:41.525Z,4.00
2023-05-14T04:37:08.125Z,4.10
2023-05-14T04:39:37.483Z,4.27
2023-05-14T04:42:04.468Z,4.10
2023-05-14T04:44:31.235Z,4.10
2023-05-14T04:46:57.890Z,3.80
2023-05-14T04:49:24.512Z,4.23
2023-05-14T04:51:51.189Z,4.13
2023-05-14T04:54:17.881Z,3.50
2023-05-14T04:56:47.737Z,4.07
2023-05-14T04:59:14.449Z,3.87
2023-05-14T05:01:41.129Z,4.27
2023-05-14T05:04:08.003Z,4.20
2023-05-14T05:06:34.816Z,3.90
2023-05-14T05:09:02.337Z,4.27
2023-05-14T05:11:29.045Z,4.23
2023-05-14T05:13:55.786Z,4.00
2023-05-14T05:16:22.805Z,4.10
2023-05-14T05:18:49.693Z,4.07
2023-05-14T05:21:16.761Z,3.97
2023-05-14T05:23:43.511Z,4.13
2023-05-14T05:26:10.212Z,4.13
2023-05-14T05:28:37.226Z,4.20
2023-05-14T05:31:04.261Z,4.30
2023-05-14T05:33:31.026Z,3.67
2023-05-14T05:35:57.682Z,3.50
2023-05-14T05:38:24.318Z,3.50
2023-05-14T05:40:51.096Z,4.03
2023-05-14T05:43:18.002Z,3.90
2023-05-14T05:45:46.016Z,4.00
2023-05-14T05:48:12.748Z,3.50
2023-05-14T05:50:39.426Z,3.50
2023-05-14T05:53:07.624Z,3.70
2023-05-14T05:55:34.497Z,4.03
2023-05-14T05:58:01.099Z,3.67
2023-05-14T06:00:27.797Z,4.00
2023-05-14T06:02:54.901Z,3.80
2023-05-14T06:05:21.810Z,3.30
2023-05-14T06:07:48.541Z,4.17
2023-05-14T06:10:15.225Z,4.17
2023-05-14T06:12:41.842Z,4.13
2023-05-14T06:15:08.762Z,4.20
2023-05-14T06:17:35.401Z,4.17
2023-05-14T06:20:02.269Z,3.97
2023-05-14T06:22:28.885Z,3.90
2023-05-14T06:24:55.591Z,3.80
2023-05-14T06:27:24.696Z,3.70
2023-05-14T06:29:51.366Z,3.63
2023-05-14T06:32:18.242Z,3.93
2023-05-14T06:34:44.941Z,3.53
2023-05-14T06:37:11.748Z,4.17
2023-05-14T06:39:38.638Z,4.10
2023-05-14T06:42:08.308Z,3.97
2023-05-14T06:44:34.961Z,4.00
2023-05-14T06:47:01.637Z,4.03
2023-05-14T06:49:29.740Z,4.30
2023-05-14T06:51:56.790Z,4.00
2023-05-14T06:54:23.849Z,4.60
2023-05-14T06:56:50.565Z,4.33
2023-05-14T06:59:17.263Z,4.37
2023-05-14T07:01:43.924Z,3.70
2023-05-14T07:04:10.768Z,4.17
2023-05-14T07:06:37.490Z,4.07
2023-05-14T07:09:04.456Z,4.10
2023-05-14T07:11:31.166Z,3.90
2023-05-14T07:13:57.806Z,4.13
2023-05-14T07:16:25.070Z,4.03
2023-05-14T07:18:53.564Z,4.10
2023-05-14T07:21:20.276Z,4.07
2023-05-14T07:23:47.021Z,4.20
2023-05-14T07:26:14.117Z,4.20
2023-05-14T07:28:40.731Z,4.20
2023-05-14T07:31:09.082Z,4.33
2023-05-14T07:33:36.549Z,4.00
2023-05-14T07:36:05.189Z,4.43
2023-05-14T07:38:32.693Z,3.87
2023-05-14T07:40:59.379Z,4.57
2023-05-14T07:43:26.301Z,4.27
2023-05-14T07:45:53.273Z,4.13
2023-05-14T07:48:20.368Z,3.53
2023-05-14T07:50:47.853Z,4.07
2023-05-14T07:53:14.561Z,3.33
2023-05-14T07:55:43.201Z,4.43
2023-05-14T07:58:09.803Z,4.93
2023-05-14T08:00:36.474Z,4.83
2023-05-14T08:03:03.680Z,4.90
2023-05-14T08:05:31.452Z,4.83
2023-05-14T08:07:58.067Z,4.87
2023-05-14T08:10:25.027Z,4.67
2023-05-14T08:12:51.882Z,4.97
2023-05-14T08:15:18.731Z,4.93
2023-05-14T08:17:45.442Z,5.37
2023-05-14T08:20:12.292Z,5.40
2023-05-14T08:22:38.938Z,6.00
2023-05-14T08:25:06.382Z,4.83
2023-05-14T08:27:33.185Z,5.47
2023-05-14T08:29:59.802Z,6.23
2023-05-14T08:32:26.438Z,5.40
2023-05-14T08:34:53.051Z,4.90
2023-05-14T08:37:19.790Z,5.50
2023-05-14T08:39:46.433Z,5.53
2023-05-14T08:42:13.817Z,5.03
2023-05-14T08:44:50.185Z,6.10
2023-05-14T08:47:18.592Z,5.93
2023-05-14T08:49:47.636Z,7.73
2023-05-14T08:52:16.376Z,5.60
2023-05-14T08:54:43.078Z,6.23
2023-05-14T08:57:10.526Z,5.97
2023-05-14T08:59:37.614Z,6.10
2023-05-14T09:02:06.472Z,6.33
2023-05-14T09:04:33.890Z,4.97
2023-05-14T09:07:02.108Z,5.90
2023-05-14T09:09:28.946Z,7.27
2023-05-14T09:11:55.626Z,7.03
2023-05-14T09:14:23.372Z,6.97
2023-05-14T09:16:51.450Z,6.57
2023-05-14T09:19:21.694Z,6.57
2023-05-14T09:21:49.389Z,6.83
2023-05-14T09:24:24.009Z,7.17
2023-05-14T09:26:57.020Z,7.73
2023-05-14T09:29:30.445Z,6.60
2023-05-14T09:32:00.228Z,7.87
2023-05-14T09:34:29.772Z,7.67
2023-05-14T09:36:58.127Z,7.77
2023-05-14T09:39:25.860Z,6.47
2023-05-14T09:41:54.428Z,6.13
2023-05-14T09:44:21.877Z,5.43
2023-05-14T09:46:49.236Z,6.43
2023-05-14T09:49:16.239Z,5.90
2023-05-14T09:51:42.989Z,6.60
2023-05-14T09:54:10.106Z,5.70
2023-05-14T09:56:37.700Z,6.27
2023-05-14T09:59:04.585Z,5.93
2023-05-14T10:01:32.939Z,6.03
2023-05-14T10:04:00.006Z,6.80
2023-05-14T10:06:28.846Z,5.97
2023-05-14T10:08:57.128Z,6.23
2023-05-14T10:11:26.145Z,5.43
2023-05-14T10:14:07.381Z,5.43
2023-05-14T10:16:35.686Z,4.97
2023-05-14T10:19:08.269Z,5.20
2023-05-14T10:21:40.453Z,4.70
2023-05-14T10:24:08.267Z,5.37
2023-05-14T10:26:40.731Z,5.77
2023-05-14T10:29:07.388Z,4.97
2023-05-14T10:31:54.082Z,5.37
2023-05-14T10:34:41.437Z,6.30
2023-05-14T10:37:09.219Z,6.07
2023-05-14T10:39:45.682Z,5.87
2023-05-14T10:42:20.933Z,5.97
2023-05-14T10:44:52.916Z,5.40
2023-05-14T10:47:19.645Z,5.07
2023-05-14T10:49:49.121Z,4.50
2023-05-14T10:52:19.534Z,5.30
2023-05-14T10:54:50.349Z,5.10
2023-05-14T10:57:18.696Z,5.03
2023-05-14T10:59:47.563Z,4.80
2023-05-14T11:02:28.357Z,4.97
2023-05-14T11:04:59.238Z,4.50
2023-05-14T11:07:34.252Z,4.77
2023-05-14T11:10:12.212Z,4.33
2023-05-14T11:12:40.782Z,5.00
2023-05-14T11:15:12.568Z,5.10
2023-05-14T11:17:41.371Z,5.03
2023-05-14T11:20:09.441Z,4.70
2023-05-14T11:22:36.974Z,4.40
2023-05-14T11:25:04.351Z,5.20
2023-05-14T11:27:33.196Z,4.83
2023-05-14T11:30:01.035Z,4.60
2023-05-14T11:32:27.988Z,4.40
2023-05-14T11:34:54.663Z,4.80
2023-05-14T11:37:21.389Z,4.70
2023-05-14T11:39:50.030Z,4.70
2023-05-14T11:42:18.764Z,4.87
2023-05-14T11:44:50.073Z,4.27
2023-05-14T11:47:18.454Z,4.23
2023-05-14T11:49:45.748Z,4.10
2023-05-14T11:52:19.085Z,3.93
2023-05-14T11:54:45.834Z,3.93
2023-05-14T11:57:14.461Z,4.10
2023-05-14T11:59:41.223Z,4.17
2023-05-14T12:02:16.107Z,3.93
2023-05-14T12:04:43.330Z,3.90
2023-05-14T12:07:12.267Z,3.70
2023-05-14T12:09:43.540Z,3.90
2023-05-14T12:12:12.564Z,4.00
2023-05-14T12:14:41.636Z,3.97
2023-05-14T12:17:16.941Z,3.83
2023-05-14T12:19:44.753Z,3.67
2023-05-14T12:22:12.159Z,3.93
2023-05-14T12:24:39.226Z,3.70
2023-05-14T12:27:07.333Z,3.80
2023-05-14T12:29:41.186Z,3.70
2023-05-14T12:32:09.490Z,3.87
2023-05-14T12:34:37.673Z,3.60
2023-05-14T12:37:05.393Z,3.40
2023-05-14T12:39:33.746Z,3.60
2023-05-14T12:42:00.490Z,3.30
2023-05-14T12:44:27.228Z,3.70
2023-05-14T12:46:54.241Z,3.70
2023-05-14T12:49:20.904Z,3.33
2023-05-14T12:51:47.624Z,3.40
2023-05-14T12:54:15.821Z,3.80
2023-05-14T12:56:42.810Z,3.73
2023-05-14T12:59:09.564Z,3.67
2023-05-14T13:01:37.622Z,3.63
2023-05-14T13:04:05.560Z,3.57
2023-05-14T13:06:32.600Z,3.53
2023-05-14T13:09:01.694Z,3.57
2023-05-14T13:11:30.295Z,3.73
2023-05-14T13:13:57.357Z,3.27
2023-05-14T13:16:24.473Z,3.33
2023-05-14T13:18:51.217Z,3.20
2023-05-14T13:21:17.881Z,3.17
2023-05-14T13:23:44.473Z,3.20
2023-05-14T13:26:11.133Z,3.27
2023-05-14T13:28:37.758Z,3.10
2023-05-14T13:31:08.296Z,3.40
2023-05-14T13:33:36.301Z,3.10
2023-05-14T13:36:03.423Z,3.37
2023-05-14T13:38:30.185Z,3.00
2023-05-14T13:41:01.722Z,3.17
2023-05-14T13:43:34.139Z,3.40
2023-05-14T13:46:01.460Z,3.63
2023-05-14T13:48:28.257Z,3.13
2023-05-14T13:50:54.962Z,3.60
2023-05-14T13:53:22.937Z,3.00
2023-05-14T13:55:50.256Z,3.20
2023-05-14T13:58:17.189Z,3.00
2023-05-14T14:00:43.904Z,3.13
2023-05-14T14:03:11.099Z,2.90
2023-05-14T14:05:37.908Z,2.93
2023-05-14T14:08:21.927Z,2.80
2023-05-14T14:10:49.767Z,2.97
2023-05-14T14:13:16.543Z,2.90
2023-05-14T14:15:43.751Z,3.17
2023-05-14T14:18:10.532Z,3.17
2023-05-14T14:20:37.287Z,3.17
2023-05-14T14:23:03.904Z,3.33
2023-05-14T14:25:30.991Z,3.47
2023-05-14T14:27:57.669Z,3.83
2023-05-14T14:30:24.314Z,2.77
2023-05-14T14:32:51.415Z,3.37
2023-05-14T14:35:19.744Z,2.80
2023-05-14T14:37:50.750Z,2.90
2023-05-14T14:40:17.755Z,3.03
2023-05-14T14:42:44.549Z,2.67
2023-05-14T14:45:11.821Z,2.90
2023-05-14T14:47:38.707Z,2.60
2023-05-14T14:50:06.448Z,2.60
2023-05-14T14:52:33.911Z,2.73
2023-05-14T14:55:01.037Z,2.80
2023-05-14T14:57:27.754Z,2.40
2023-05-14T14:59:54.456Z,2.87
2023-05-14T15:02:21.096Z,2.70
2023-05-14T15:04:47.755Z,2.80
2023-05-14T15:07:17.229Z,2.60
2023-05-14T15:09:44.156Z,2.70
2023-05-14T15:12:10.895Z,2.60
2023-05-14T15:14:37.592Z,2.80
2023-05-14T15:17:04.603Z,2.40
2023-05-14T15:19:32.305Z,2.90
2023-05-14T15:21:59.070Z,2.70
2023-05-14T15:24:26.192Z,2.57
2023-05-14T15:26:53.650Z,2.43
2023-05-14T15:29:20.550Z,2.80
2023-05-14T15:31:47.411Z,2.50
2023-05-14T15:34:14.574Z,2.50
2023-05-14T15:36:41.222Z,2.60
2023-05-14T15:39:10.178Z,2.70
2023-05-14T15:41:37.093Z,2.70
2023-05-14T15:44:03.958Z,2.77
2023-05-14T15:46:31.103Z,2.67
2023-05-14T15:48:58.105Z,2.80
2023-05-14T15:51:25.189Z,2.43
2023-05-14T15:53:54.033Z,2.70
2023-05-14T15:56:22.219Z,2.63
2023-05-14T15:58:49.266Z,2.80
2023-05-14T16:01:15.961Z,2.93
2023-05-14T16:03:42.782Z,2.43
2023-05-14T16:06:09.940Z,2.50
2023-05-14T16:08:36.611Z,2.60
2023-05-14T16:11:03.397Z,2.50
2023-05-14T16:13:30.049Z,3.10
2023-05-14T16:15:56.688Z,2.60
2023-05-14T16:18:25.150Z,2.57
2023-05-14T16:20:51.992Z,2.47
2023-05-14T16:23:18.879Z,2.30
2023-05-14T16:25:45.592Z,2.83
2023-05-14T16:28:12.357Z,2.80
2023-05-14T16:30:39.000Z,2.70
2023-05-14T16:33:06.316Z,2.97
2023-05-14T16:35:33.034Z,2.50
2023-05-14T16:37:59.763Z,2.50
2023-05-14T16:40:26.479Z,2.80
2023-05-14T16:42:53.143Z,2.40
2023-05-14T16:45:19.772Z,2.57
2023-05-14T16:47:46.428Z,2.70
2023-05-14T16:50:13.068Z,2.73
2023-05-14T16:52:39.738Z,2.63
2023-05-14T16:55:06.679Z,2.73
2023-05-14T16:57:34.249Z,2.83
2023-05-14T17:00:05.959Z,2.83
2023-05-14T17:02:33.271Z,2.53
2023-05-14T17:05:00.203Z,3.23
2023-05-14T17:07:26.986Z,2.97
2023-05-14T17:09:53.693Z,3.10
2023-05-14T17:12:20.474Z,3.47
2023-05-14T17:14:47.137Z,3.27
2023-05-14T17:17:14.080Z,3.23
2023-05-14T17:19:41.033Z,3.03
2023-05-14T17:22:07.772Z,2.80
2023-05-14T17:24:36.276Z,3.30
2023-05-14T17:27:03.424Z,3.17
2023-05-14T17:29:30.106Z,3.17
2023-05-14T17:31:56.833Z,3.07
2023-05-14T17:34:23.692Z,3.03
2023-05-14T17:36:50.450Z,3.00
2023-05-14T17:39:17.113Z,2.70
2023-05-14T17:41:44.049Z,2.87
2023-05-14T17:44:12.827Z,2.50
2023-05-14T17:46:41.573Z,2.70
2023-05-14T17:49:08.364Z,2.80
2023-05-14T17:51:34.986Z,3.00
2023-05-14T17:54:01.643Z,2.47
2023-05-14T17:56:29.228Z,2.77
2023-05-14T17:58:55.861Z,2.53
2023-05-14T18:01:22.580Z,2.67
2023-05-14T18:03:49.516Z,2.70
2023-05-14T18:06:16.872Z,2.93
2023-05-14T18:08:43.642Z,3.00
2023-05-14T18:11:10.261Z,2.43
2023-05-14T18:13:37.028Z,2.40
2023-05-14T18:16:04.190Z,2.60
2023-05-14T18:18:31.053Z,2.40
2023-05-14T18:20:57.698Z,2.50
2023-05-14T18:23:24.374Z,2.80
2023-05-14T18:25:50.978Z,2.80
2023-05-14T18:28:18.910Z,2.90
2023-05-14T18:30:45.713Z,2.80
2023-05-14T18:33:12.476Z,2.77
2023-05-14T18:35:39.193Z,2.70
2023-05-14T18:38:07.838Z,2.50
2023-05-14T18:40:34.859Z,3.27
2023-05-14T18:43:03.001Z,2.80
2023-05-14T18:45:30.088Z,2.27
2023-05-14T18:47:56.829Z,2.70
2023-05-14T18:50:23.513Z,2.60
2023-05-14T18:52:50.128Z,2.67
2023-05-14T18:55:16.807Z,2.60
2023-05-14T18:57:43.471Z,2.80
2023-05-14T19:00:10.844Z,2.70
2023-05-14T19:02:37.707Z,2.47
2023-05-14T19:05:04.614Z,2.60
2023-05-14T19:07:31.249Z,2.90
2023-05-14T19:09:57.870Z,2.67
2023-05-14T19:12:24.544Z,3.00
2023-05-14T19:14:51.165Z,7.73
2023-05-14T19:17:20.411Z,4.67
2023-05-14T19:19:47.519Z,5.37
2023-05-14T19:22:14.119Z,3.93
2023-05-14T19:24:40.889Z,3.40
2023-05-14T19:27:08.164Z,3.53
2023-05-14T19:29:37.080Z,5.13
2023-05-14T19:32:04.705Z,3.87
2023-05-14T19:34:31.544Z,4.03
2023-05-14T19:36:58.204Z,3.33
2023-05-14T19:39:24.878Z,3.30
2023-05-14T19:41:51.509Z,3.53
2023-05-14T19:44:18.223Z,3.50
2023-05-14T19:46:45.118Z,3.60
2023-05-14T19:49:12.135Z,3.30
2023-05-14T19:51:38.796Z,3.70
2023-05-14T19:54:05.647Z,4.23
2023-05-14T19:56:32.309Z,3.70
2023-05-14T19:58:58.948Z,3.60
2023-05-14T20:01:26.692Z,3.83
2023-05-14T20:03:53.414Z,3.90
2023-05-14T20:06:20.098Z,4.00
2023-05-14T20:08:46.773Z,4.00
2023-05-14T20:11:15.363Z,3.77
2023-05-14T20:13:42.033Z,4.17
2023-05-14T20:16:08.646Z,4.80
2023-05-14T20:18:35.478Z,4.37
2023-05-14T20:21:02.213Z,4.07
2023-05-14T20:23:28.912Z,4.27
2023-05-14T20:25:55.746Z,4.27
2023-05-14T20:28:22.371Z,3.80
2023-05-14T20:30:49.116Z,4.00
2023-05-14T20:33:16.375Z,3.70
2023-05-14T20:35:44.016Z,3.47
2023-05-14T20:38:12.573Z,3.47
2023-05-14T20:40:47.132Z,4.20
2023-05-14T20:43:14.133Z,3.97
2023-05-14T20:45:40.860Z,3.80
2023-05-14T20:48:10.024Z,4.00
2023-05-14T20:50:36.805Z,4.00
2023-05-14T20:53:04.313Z,3.60
2023-05-14T20:55:30.949Z,3.87
2023-05-14T20:57:57.675Z,4.23
2023-05-14T21:00:24.370Z,3.73
2023-05-14T21:02:51.152Z,3.57
2023-05-14T21:05:18.041Z,3.73
2023-05-14T21:07:44.702Z,3.47
2023-05-14T21:10:11.554Z,3.90
2023-05-14T21:12:38.246Z,3.57
2023-05-14T21:15:05.556Z,3.67
2023-05-14T21:17:32.449Z,3.87
2023-05-14T21:19:59.119Z,4.10
2023-05-14T21:22:27.061Z,4.30
2023-05-14T21:24:55.960Z,5.87
2023-05-14T21:27:22.756Z,5.53
2023-05-14T21:29:49.433Z,5.47
2023-05-14T21:32:16.149Z,5.40
2023-05-14T21:34:43.720Z,5.97
2023-05-14T21:37:10.340Z,6.57
2023-05-14T21:39:36.990Z,7.03
2023-05-14T21:42:03.885Z,6.73
2023-05-14T21:44:30.640Z,6.90
2023-05-14T21:46:57.314Z,7.13
2023-05-14T21:49:23.999Z,6.87
2023-05-14T21:51:53.043Z,6.50
2023-05-14T21:54:20.998Z,7.07
2023-05-14T21:56:47.826Z,6.93
2023-05-14T21:59:14.504Z,5.90
2023-05-14T22:02:00.651Z,6.10
2023-05-14T22:04:27.740Z,5.90
2023-05-14T22:06:54.356Z,5.67
2023-05-14T22:09:21.161Z,4.90
2023-05-14T22:11:47.833Z,5.13
2023-05-14T22:14:14.483Z,4.53
2023-05-14T22:16:41.226Z,4.37
2023-05-14T22:19:08.034Z,4.37
2023-05-14T22:21:34.752Z,4.40
2023-05-14T22:24:01.444Z,4.13
2023-05-14T22:26:28.183Z,4.33
2023-05-14T22:28:56.834Z,4.27
2023-05-14T22:31:23.602Z,3.87
2023-05-14T22:33:50.279Z,3.87
2023-05-14T22:36:16.954Z,4.07
2023-05-14T22:38:43.853Z,3.60
2023-05-14T22:41:10.890Z,4.07
2023-05-14T22:43:37.695Z,3.70
2023-05-14T22:46:04.642Z,3.93
2023-05-14T22:48:31.299Z,3.90
2023-05-14T22:50:57.997Z,4.37
2023-05-14T22:53:25.357Z,4.07
2023-05-14T22:55:52.203Z,4.40
2023-05-14T22:58:19.028Z,4.07
2023-05-14T23:00:45.795Z,4.30
2023-05-14T23:03:12.800Z,4.90
2023-05-14T23:05:39.492Z,3.90
2023-05-14T23:08:06.401Z,4.80
2023-05-14T23:10:35.273Z,3.50
2023-05-14T23:13:01.955Z,4.07
2023-05-14T23:15:28.666Z,4.00
2023-05-14T23:17:55.429Z,4.30
2023-05-14T23:20:22.201Z,4.00
2023-05-14T23:22:48.837Z,3.70
2023-05-14T23:25:15.551Z,3.80
2023-05-14T23:27:42.205Z,3.30
2023-05-14T23:30:09.357Z,3.70
2023-05-14T23:32:36.092Z,3.60
2023-05-14T23:35:02.954Z,4.00
2023-05-14T23:37:29.671Z,3.80
2023-05-14T23:39:56.336Z,3.53
2023-05-14T23:42:23.159Z,3.53
2023-05-14T23:44:50.200Z,3.53
2023-05-14T23:47:16.865Z,3.60
2023-05-14T23:49:43.572Z,3.70
2023-05-14T23:52:11.320Z,3.20
2023-05-14T23:54:38.836Z,3.60
2023-05-14T23:57:05.760Z,3.37
2023-05-14T23:59:32.470Z,3.60
